Time;durP1;ratioP1;P1;durP2;ratioP2;P2;SDS_P1;SDS_P2;PMS_P1;PMS_P2;Temp;Humidity;BMP_temperature;BMP_pressure;BME280_temperature;BME280_humidity;BME280_pressure;Samples;Min_cycle;Max_cycle;Signal;HPM_P1;HPM_P2
2022/06/18 00:01:53;;;;;;;4.08;1.50;;;;;;;12.25;63.99;100029.99;1738446;81;20883;-61
2022/06/18 00:04:22;;;;;;;1.60;1.10;;;;;;;12.21;64.11;100024.53;1736547;81;21445;-61
2022/06/18 00:07:02;;;;;;;1.62;1.10;;;;;;;12.17;64.23;100024.75;1744585;81;21023;-61
2022/06/18 00:09:36;;;;;;;1.77;1.17;;;;;;;12.11;64.25;100020.66;1739233;81;20918;-62
2022/06/18 00:15:18;;;;;;;1.90;1.40;;;;;;;12.08;64.51;100023.44;1733867;81;21038;-61
2022/06/18 00:17:46;;;;;;;2.20;1.20;;;;;;;12.14;64.62;100025.75;1734549;81;20923;-61
2022/06/18 00:20:15;;;;;;;1.92;1.30;;;;;;;12.14;64.62;100025.75;1737747;81;21947;-61
2022/06/18 00:22:46;;;;;;;1.85;1.12;;;;;;;12.17;64.76;100028.21;1741902;81;20930;-61
2022/06/18 00:25:30;;;;;;;2.52;1.40;;;;;;;12.23;64.75;100027.91;1715920;82;20950;-61
2022/06/18 00:27:57;;;;;;;3.47;1.20;;;;;;;12.24;64.86;100019.15;1704346;83;20919;-61
2022/06/18 00:30:26;;;;;;;2.08;1.30;;;;;;;12.31;64.95;100020.52;1708738;83;21026;-61
2022/06/18 00:32:53;;;;;;;2.35;1.25;;;;;;;12.35;64.97;100019.05;1705832;83;21219;-61
2022/06/18 00:35:21;;;;;;;1.82;1.20;;;;;;;12.41;65.01;100017.47;1737932;82;20930;-61
2022/06/18 00:37:51;;;;;;;;;;;;;;;12.47;65.02;100016.69;1740698;82;20952;-61
2022/06/18 00:40:25;;;;;;;0.90;0.70;;;;;;;12.55;65.17;100015.00;1732304;82;20084;-61
2022/06/18 00:42:52;;;;;;;0.95;0.80;;;;;;;12.63;65.11;100012.84;1702327;82;20986;-61
2022/06/18 00:45:26;;;;;;;2.45;1.10;;;;;;;12.71;65.11;100014.57;1730880;82;20993;-61
2022/06/18 00:48:25;;;;;;;2.47;1.00;;;;;;;12.78;65.11;100015.12;1738678;82;21012;-61
2022/06/18 00:50:56;;;;;;;1.62;0.80;;;;;;;12.86;65.11;100009.49;1731297;82;20903;-61
2022/06/18 00:53:31;;;;;;;2.83;1.00;;;;;;;12.95;65.15;100003.77;1731576;82;20914;-61
2022/06/18 00:56:18;;;;;;;0.90;0.60;;;;;;;13.03;65.15;100004.20;1735280;82;20935;-61
2022/06/18 00:58:52;;;;;;;3.90;1.25;;;;;;;13.10;65.11;100001.62;1733967;82;21055;-61
2022/06/18 01:01:26;;;;;;;1.00;0.82;;;;;;;13.19;65.14;100009.02;1705841;82;20965;-61
2022/06/18 01:03:54;;;;;;;1.52;1.00;;;;;;;13.26;65.11;99996.92;1719931;82;20881;-61
2022/06/18 01:06:26;;;;;;;;;;;;;;;13.32;65.11;100007.07;1738652;81;20922;-61
2022/06/18 01:09:00;;;;;;;1.25;0.75;;;;;;;13.39;65.13;100005.83;1732872;81;20112;-61
2022/06/18 01:11:32;;;;;;;1.72;0.98;;;;;;;13.44;65.15;100006.39;1727576;81;21116;-61
2022/06/18 01:14:01;;;;;;;2.05;0.80;;;;;;;13.48;65.11;100005.31;1720541;82;20949;-61
2022/06/18 01:16:28;;;;;;;1.77;1.00;;;;;;;13.52;65.16;99995.48;1716676;82;20957;-61
2022/06/18 01:18:55;;;;;;;0.90;0.70;;;;;;;13.54;65.12;99989.23;1720376;82;20946;-61
2022/06/18 01:21:57;;;;;;;1.22;0.80;;;;;;;13.56;65.11;99986.06;1706997;83;20996;-61
2022/06/18 01:24:35;;;;;;;1.42;0.98;;;;;;;13.61;65.11;99986.66;1704122;83;22112;-61
2022/06/18 01:27:03;;;;;;;0.90;0.57;;;;;;;13.65;65.09;99982.92;1719518;82;20885;-61
2022/06/18 01:29:29;;;;;;;1.27;1.00;;;;;;;13.71;65.10;99980.89;1704515;83;21544;-61
2022/06/18 01:31:56;;;;;;;0.90;0.60;;;;;;;13.75;65.04;99981.08;1703451;83;20923;-61
2022/06/18 01:34:23;;;;;;;1.80;0.80;;;;;;;13.79;65.08;99976.06;1709507;83;20991;-61
2022/06/18 01:36:51;;;;;;;2.05;1.07;;;;;;;13.83;65.05;99976.25;1732097;81;21848;-61
2022/06/18 01:39:23;;;;;;;14.65;1.75;;;;;;;13.87;65.08;99971.23;1710392;83;21481;-61
2022/06/18 01:41:57;;;;;;;5.30;0.82;;;;;;;13.90;65.05;99971.05;1703883;83;20935;-61
2022/06/18 01:44:44;;;;;;;0.90;0.65;;;;;;;13.90;65.01;99965.80;1736560;81;21067;-61
2022/06/18 01:47:25;;;;;;;1.95;0.57;;;;;;;13.92;64.98;99958.69;1704555;83;21484;-61
2022/06/18 01:50:01;;;;;;;1.70;0.62;;;;;;;13.94;64.94;99953.33;1703764;83;20999;-62
2022/06/18 01:52:35;;;;;;;1.30;0.80;;;;;;;13.92;64.95;99948.19;1717546;82;21530;-61
2022/06/18 01:55:13;;;;;;;0.65;0.55;;;;;;;13.91;64.96;99946.48;1725096;82;20876;-61
2022/06/18 01:57:46;;;;;;;1.37;0.70;;;;;;;13.90;64.92;99944.80;1721566;82;20899;-61
2022/06/18 02:00:18;;;;;;;1.00;0.72;;;;;;;13.89;64.94;99937.84;1722594;82;20888;-61
2022/06/18 02:02:45;;;;;;;1.70;0.70;;;;;;;13.91;64.93;99941.23;1706622;83;21145;-61
2022/06/18 02:05:14;;;;;;;2.42;1.17;;;;;;;13.92;64.91;99933.75;1701277;83;20942;-61
2022/06/18 02:07:44;;;;;;;0.78;0.60;;;;;;;13.94;64.88;99925.30;1697767;83;20937;-61
2022/06/18 02:10:16;;;;;;;0.90;0.65;;;;;;;13.93;64.86;99920.99;1702363;83;21167;-61
2022/06/18 02:12:42;;;;;;;1.17;0.90;;;;;;;13.93;64.91;99920.16;1705808;83;21456;-61
2022/06/18 02:15:14;;;;;;;1.82;0.65;;;;;;;13.92;64.90;99920.62;1705306;83;21047;-61
2022/06/18 02:17:41;;;;;;;1.30;1.05;;;;;;;13.93;64.92;99918.37;1685400;83;20942;-61
2022/06/18 02:20:20;;;;;;;;;;;;;;;13.94;64.92;99913.95;1715972;82;20928;-62
2022/06/18 02:22:54;;;;;;;4.35;1.00;;;;;;;13.94;64.98;99910.86;1683591;84;20109;-61
2022/06/18 02:25:25;;;;;;;1.32;0.82;;;;;;;13.95;64.90;99910.39;1692223;84;20940;-61
2022/06/18 02:27:58;;;;;;;1.55;0.80;;;;;;;13.96;64.92;99914.25;1699685;83;21014;-61
2022/06/18 02:30:30;;;;;;;1.72;1.00;;;;;;;13.99;64.89;99907.51;1706300;83;20965;-61
2022/06/18 02:33:19;;;;;;;2.40;0.93;;;;;;;14.02;64.88;99909.95;1699989;83;21513;-61
2022/06/18 02:35:47;;;;;;;1.07;0.70;;;;;;;14.05;64.89;99914.18;1686233;84;20988;-61
2022/06/18 02:38:21;;;;;;;1.60;0.80;;;;;;;14.08;64.89;99916.15;1689566;84;21506;-62
2022/06/18 02:40:48;;;;;;;1.17;0.60;;;;;;;14.11;64.83;99911.19;1712383;83;21468;-62
2022/06/18 02:43:18;;;;;;;2.10;0.88;;;;;;;14.14;64.84;99907.54;1703097;83;20969;-61
2022/06/18 02:45:49;;;;;;;1.75;0.65;;;;;;;14.18;64.87;99910.37;1707050;83;20953;-61
2022/06/18 02:48:16;;;;;;;1.47;0.70;;;;;;;14.20;64.83;99912.42;1707358;83;20966;-61
2022/06/18 02:50:43;;;;;;;4.28;0.95;;;;;;;14.22;64.85;99909.25;1710196;83;20925;-61
2022/06/18 02:53:12;;;;;;;;;;;;;;;14.24;64.81;99901.66;1702716;83;21062;-61
2022/06/18 02:55:44;;;;;;;0.80;0.70;;;;;;;14.27;64.86;99905.88;1706599;83;20096;-62
2022/06/18 02:58:24;;;;;;;0.78;0.75;;;;;;;14.29;64.84;99909.27;1709765;83;20911;-61
2022/06/18 03:00:54;;;;;;;7.85;1.42;;;;;;;14.30;64.83;99900.45;1713059;83;20923;-61
2022/06/18 03:03:29;;;;;;;1.07;0.78;;;;;;;14.33;64.82;99904.20;1703319;83;20936;-61
2022/06/18 03:05:56;;;;;;;1.00;0.70;;;;;;;14.34;64.87;99901.97;1704509;82;21117;-61
2022/06/18 03:08:27;;;;;;;3.42;0.90;;;;;;;14.35;64.83;99898.39;1707133;83;20985;-61
2022/06/18 03:13:39;;;;;;;2.45;0.98;;;;;;;14.39;64.92;99902.51;1690718;83;20928;-61
2022/06/18 03:16:08;;;;;;;1.52;0.93;;;;;;;14.42;64.89;99897.07;1689576;83;21164;-61
2022/06/18 03:18:37;;;;;;;3.02;0.95;;;;;;;14.44;64.94;99895.20;1691322;83;21099;-61
2022/06/18 03:21:33;;;;;;;1.72;0.95;;;;;;;14.46;64.99;99893.34;1693649;83;20946;-61
2022/06/18 03:24:00;;;;;;;1.60;0.70;;;;;;;14.48;64.97;99894.09;1691854;83;20982;-61
2022/06/18 03:26:27;;;;;;;1.15;0.80;;;;;;;14.49;65.09;99895.77;1696425;83;20922;-62
2022/06/18 03:28:54;;;;;;;2.27;0.90;;;;;;;14.52;65.18;99894.78;1695303;83;21038;-62
2022/06/18 03:31:21;;;;;;;1.85;0.93;;;;;;;14.55;65.17;99891.48;1694005;83;21064;-62
2022/06/18 03:33:49;;;;;;;1.90;0.80;;;;;;;14.55;65.12;99894.11;1695819;83;20911;-61
2022/06/18 03:36:18;;;;;;;1.47;0.72;;;;;;;14.60;65.23;99889.06;1695883;83;20914;-62
2022/06/18 03:38:46;;;;;;;1.55;1.00;;;;;;;14.64;65.25;99890.55;1692893;83;20984;-61
2022/06/18 03:41:13;;;;;;;3.22;1.10;;;;;;;14.65;65.23;99894.89;1696857;83;20954;-61
2022/06/18 03:43:39;;;;;;;;;;;;;;;14.65;65.30;99891.78;1697364;83;21573;-61
2022/06/18 03:46:10;;;;;;;5.20;1.07;;;;;;;14.63;65.29;99892.81;1692453;83;20103;-61
2022/06/18 03:48:49;;;;;;;2.00;1.20;;;;;;;14.61;65.42;99885.48;1692975;83;20888;-62
2022/06/18 03:51:17;;;;;;;3.52;1.05;;;;;;;14.63;65.43;99879.67;1665874;85;20891;-62
2022/06/18 03:53:44;;;;;;;1.05;0.70;;;;;;;14.60;65.44;99876.77;1692393;84;20922;-62
2022/06/18 03:56:13;;;;;;;;;;;;;;;14.58;65.45;99880.42;1692812;83;21026;-61
2022/06/18 03:58:40;;;;;;;1.60;1.02;;;;;;;14.59;65.63;99883.41;1694952;84;20153;-61
2022/06/18 04:01:08;;;;;;;1.10;0.70;;;;;;;14.57;65.58;99878.27;1698450;83;21513;-62
2022/06/18 04:03:35;;;;;;;1.27;0.80;;;;;;;14.57;65.66;99884.00;1697492;83;20946;-61
2022/06/18 04:06:02;;;;;;;1.20;0.70;;;;;;;14.57;65.72;99880.89;1695328;83;20986;-61
2022/06/18 04:08:28;;;;;;;1.17;0.90;;;;;;;14.57;65.75;99876.12;1693578;83;22025;-61
2022/06/18 04:10:55;;;;;;;1.57;0.70;;;;;;;14.55;65.75;99869.16;1670687;85;20993;-62
2022/06/18 04:13:22;;;;;;;1.20;1.00;;;;;;;14.54;65.84;99866.16;1694801;84;20907;-61
2022/06/18 04:15:48;;;;;;;2.63;1.00;;;;;;;14.55;65.94;99856.02;1689458;84;20925;-61
2022/06/18 04:18:15;;;;;;;1.93;1.07;;;;;;;14.54;66.02;99843.83;1691857;83;20951;-61
2022/06/18 04:20:42;;;;;;;1.63;0.90;;;;;;;14.56;66.10;99851.59;1700190;83;22468;-61
2022/06/18 04:23:11;;;;;;;0.82;0.65;;;;;;;14.60;66.23;99844.39;1700609;83;20918;-61
2022/06/18 04:25:38;;;;;;;1.10;0.85;;;;;;;14.64;66.29;99851.13;1710617;82;20867;-61
2022/06/18 04:28:05;;;;;;;;;;;;;;;14.68;66.35;99853.96;1706809;83;21530;-61
2022/06/18 04:30:33;;;;;;;0.98;0.80;;;;;;;14.68;66.45;99864.00;1731016;81;20100;-62
2022/06/18 04:33:00;;;;;;;1.27;0.90;;;;;;;14.68;66.44;99865.79;1731948;82;21085;-61
2022/06/18 04:35:27;;;;;;;;;;;;;;;14.71;66.53;99861.17;1731694;82;21845;-62
2022/06/18 04:37:54;;;;;;;2.22;1.00;;;;;;;14.77;66.76;99858.16;1731615;82;20120;-62
2022/06/18 04:40:31;;;;;;;2.72;0.88;;;;;;;14.82;66.72;99850.00;1729367;82;21417;-62
2022/06/18 04:42:54;;;;;;;0.95;0.68;;;;;;;14.90;66.74;99849.05;1737351;81;20887;-61
2022/06/18 04:45:20;;;;;;;1.35;1.00;;;;;;;14.94;66.77;99842.64;1730247;82;20996;-61
2022/06/18 04:47:47;;;;;;;1.47;0.90;;;;;;;15.00;66.87;99839.62;1732974;82;20936;-61
2022/06/18 04:50:21;;;;;;;1.83;1.10;;;;;;;15.10;66.88;99841.68;1733009;82;21612;-61
2022/06/18 04:52:48;;;;;;;2.08;0.80;;;;;;;15.20;66.94;99833.55;1727978;82;20892;-62
2022/06/18 04:55:15;;;;;;;1.22;0.85;;;;;;;15.35;67.12;99827.31;1701812;83;20991;-62
2022/06/18 04:57:42;;;;;;;1.85;0.90;;;;;;;15.50;67.01;99821.98;1704294;83;21056;-62
2022/06/18 05:00:10;;;;;;;8.08;1.40;;;;;;;15.64;67.00;99825.85;1738653;81;21461;-61
2022/06/18 05:02:37;;;;;;;4.30;1.00;;;;;;;15.79;67.05;99826.16;1710388;83;20950;-62
2022/06/18 05:05:08;;;;;;;1.62;0.98;;;;;;;15.98;67.23;99826.25;1702372;83;20927;-62
2022/06/18 05:07:35;;;;;;;3.08;1.05;;;;;;;16.16;67.17;99818.42;1699623;83;21543;-62
2022/06/18 05:10:01;;;;;;;1.90;1.25;;;;;;;16.30;67.09;99813.03;1706133;83;21142;-62
2022/06/18 05:12:28;;;;;;;2.10;0.93;;;;;;;16.42;67.05;99813.13;1703154;83;20924;-62
2022/06/18 05:14:55;;;;;;;2.02;1.25;;;;;;;16.56;67.04;99811.67;1737223;82;20916;-62
2022/06/18 05:17:27;;;;;;;2.22;1.20;;;;;;;16.68;67.15;99798.94;1702520;83;21473;-61
2022/06/18 05:19:53;;;;;;;4.03;1.05;;;;;;;16.90;67.24;99797.44;1712778;82;20959;-62
2022/06/18 05:22:20;;;;;;;2.08;1.17;;;;;;;17.07;67.06;99793.56;1713128;82;21105;-62
2022/06/18 05:24:47;;;;;;;2.15;0.98;;;;;;;17.15;66.87;99789.41;1737061;82;20930;-61
2022/06/18 05:27:28;;;;;;;2.27;0.90;;;;;;;17.23;66.83;99792.33;1697145;83;21465;-62
2022/06/18 05:29:56;;;;;;;1.42;0.95;;;;;;;17.31;66.71;99788.27;1714988;82;20980;-62
2022/06/18 05:32:23;;;;;;;1.30;0.68;;;;;;;17.39;66.66;99791.17;1708024;83;21448;-62
2022/06/18 05:34:50;;;;;;;1.50;0.88;;;;;;;17.52;66.49;99791.12;1698213;83;21031;-62
2022/06/18 05:37:20;;;;;;;2.80;0.75;;;;;;;17.66;66.42;99787.79;1701555;83;21521;-62
2022/06/18 05:39:47;;;;;;;1.77;0.70;;;;;;;17.88;66.44;99784.88;1729636;82;20879;-62
2022/06/18 05:42:14;;;;;;;1.67;0.70;;;;;;;18.11;66.26;99781.30;1719533;82;20997;-62
2022/06/18 05:44:41;;;;;;;1.70;0.70;;;;;;;18.40;66.11;99779.52;1721894;82;21028;-62
2022/06/18 05:47:19;;;;;;;0.60;0.47;;;;;;;18.69;65.87;99767.09;1729429;81;21875;-62
2022/06/18 05:49:46;;;;;;;1.12;0.60;;;;;;;18.87;65.27;99762.98;1720967;82;20906;-62
2022/06/18 05:52:13;;;;;;;1.37;0.60;;;;;;;18.89;64.79;99768.16;1724876;82;26549;-62
2022/06/18 05:54:40;;;;;;;1.85;0.85;;;;;;;18.85;64.71;99759.64;1725619;82;21498;-62
2022/06/18 05:57:07;;;;;;;2.87;0.60;;;;;;;18.80;64.44;99765.78;1723509;82;20934;-62
2022/06/18 05:59:34;;;;;;;1.77;0.80;;;;;;;18.78;64.62;99766.38;1729582;82;21028;-62
2022/06/18 06:02:01;;;;;;;3.65;0.95;;;;;;;18.76;64.27;99765.66;1719564;82;20942;-62
2022/06/18 06:04:29;;;;;;;5.80;0.85;;;;;;;18.71;64.00;99758.56;1732301;82;20909;-62
2022/06/18 06:06:57;;;;;;;2.12;0.62;;;;;;;18.62;63.84;99756.15;1726380;82;20961;-62
2022/06/18 06:12:11;;;;;;;3.65;0.98;;;;;;;18.49;63.65;99753.66;1723145;82;21109;-62
2022/06/18 06:14:41;;;;;;;2.40;1.00;;;;;;;18.39;63.45;99747.41;1723384;81;20970;-62
2022/06/18 06:17:14;;;;;;;1.07;0.82;;;;;;;18.37;63.32;99745.86;1724412;82;21492;-62
2022/06/18 06:19:41;;;;;;;2.17;0.95;;;;;;;18.33;63.35;99742.63;1716240;82;20957;-62
2022/06/18 06:22:08;;;;;;;1.02;0.93;;;;;;;18.31;63.36;99739.25;1724263;81;20934;-62
2022/06/18 06:24:34;;;;;;;1.75;0.95;;;;;;;18.31;63.17;99733.48;1720284;82;21190;-61
2022/06/18 06:27:01;;;;;;;7.40;1.27;;;;;;;18.34;62.96;99723.14;1717346;82;20938;-61
2022/06/18 06:29:28;;;;;;;2.72;1.40;;;;;;;18.40;63.14;99722.68;1729861;82;20919;-61
2022/06/18 06:31:54;;;;;;;1.32;1.20;;;;;;;18.50;63.07;99719.64;1692185;83;21497;-61
2022/06/18 06:34:21;;;;;;;2.55;1.30;;;;;;;18.56;62.80;99712.53;1722483;81;20919;-62
2022/06/18 06:36:48;;;;;;;1.92;1.12;;;;;;;18.67;62.93;99714.80;1716181;82;26852;-62
2022/06/18 06:39:16;;;;;;;3.85;1.32;;;;;;;18.83;62.81;99703.36;1697701;83;21006;-64
2022/06/18 06:41:44;;;;;;;6.30;1.40;;;;;;;18.97;62.71;99700.91;1713522;82;20933;-64
2022/06/18 06:44:11;;;;;;;3.22;1.70;;;;;;;19.15;62.64;99705.15;1710212;82;21006;-63
2022/06/18 06:46:37;;;;;;;1.87;1.32;;;;;;;19.36;62.58;99695.42;1704743;83;20874;-64
2022/06/18 06:49:04;;;;;;;1.80;1.10;;;;;;;19.55;62.47;99691.20;1697278;83;21079;-63
2022/06/18 06:51:35;;;;;;;1.72;1.10;;;;;;;19.74;62.28;99686.04;1694231;83;20918;-63
2022/06/18 06:54:02;;;;;;;4.00;1.20;;;;;;;19.89;62.41;99687.38;1704192;83;20951;-63
2022/06/18 06:59:14;;;;;;;2.30;1.10;;;;;;;20.37;62.11;99677.08;1697990;83;21057;-65
2022/06/18 07:01:40;;;;;;;2.95;1.32;;;;;;;20.61;61.75;99666.94;1714828;82;21042;-63
2022/06/18 07:04:11;;;;;;;2.30;1.10;;;;;;;20.70;61.70;99660.82;1696450;83;20938;-64
2022/06/18 07:06:38;;;;;;;1.40;1.00;;;;;;;20.83;61.40;99659.70;1696942;83;21448;-64
2022/06/18 07:09:06;;;;;;;6.80;1.57;;;;;;;20.89;61.47;99651.17;1717564;82;20926;-63
2022/06/18 07:11:34;;;;;;;2.15;1.30;;;;;;;20.96;61.35;99652.30;1762572;81;20908;-64
2022/06/18 07:14:01;;;;;;;2.30;0.98;;;;;;;21.13;61.50;99640.13;1761105;80;21272;-63
2022/06/18 07:16:28;;;;;;;2.87;1.50;;;;;;;21.31;61.36;99638.89;1766305;81;20918;-62
2022/06/18 07:18:56;;;;;;;2.87;1.42;;;;;;;21.39;60.81;99637.72;1764401;80;20986;-62
2022/06/18 07:21:23;;;;;;;2.65;1.30;;;;;;;21.38;60.49;99636.05;1760540;80;20923;-62
2022/06/18 07:23:50;;;;;;;2.95;1.30;;;;;;;21.35;60.55;99638.97;1758242;80;20942;-62
2022/06/18 07:26:21;;;;;;;2.52;1.47;;;;;;;21.47;60.62;99642.31;1752257;80;21481;-62
2022/06/18 07:28:49;;;;;;;7.70;1.67;;;;;;;21.57;60.62;99630.69;1761927;80;20870;-62
2022/06/18 07:31:23;;;;;;;3.87;1.50;;;;;;;21.78;60.45;99627.79;1758875;79;20971;-63
2022/06/18 07:33:51;;;;;;;4.60;1.57;;;;;;;21.87;60.17;99626.93;1755400;80;20925;-62
2022/06/18 07:36:19;;;;;;;4.80;1.77;;;;;;;21.93;59.92;99617.53;1762311;80;20946;-62
2022/06/18 07:38:45;;;;;;;3.27;1.65;;;;;;;22.02;59.82;99620.62;1763253;79;21090;-62
2022/06/18 07:41:16;;;;;;;2.70;1.50;;;;;;;22.06;59.44;99623.31;1758048;80;21503;-64
2022/06/18 07:43:47;;;;;;;2.87;1.37;;;;;;;22.10;59.65;99623.38;1762729;80;20954;-63
2022/06/18 07:46:14;;;;;;;3.72;1.45;;;;;;;22.31;59.62;99618.30;1757796;80;20921;-63
2022/06/18 07:48:41;;;;;;;10.53;1.85;;;;;;;22.49;59.21;99619.16;1756256;80;20962;-64
2022/06/18 07:51:08;;;;;;;3.72;2.05;;;;;;;22.64;58.97;99618.63;1755589;80;21013;-63
2022/06/18 07:53:34;;;;;;;;;;;;;;;22.72;58.99;99612.05;1756462;80;20937;-63
2022/06/18 07:56:02;;;;;;;6.97;1.50;;;;;;;22.82;58.79;99610.12;1761386;80;20951;-63
2022/06/18 07:58:28;;;;;;;;;;;;;;;22.81;58.61;99603.14;1760046;80;20907;-63
2022/06/18 08:00:57;;;;;;;7.40;1.90;;;;;;;22.85;58.25;99597.00;1755666;80;20591;-63
2022/06/18 08:03:24;;;;;;;8.08;1.50;;;;;;;22.88;58.56;99591.36;1757574;80;20994;-63
2022/06/18 08:05:53;;;;;;;3.98;1.62;;;;;;;23.05;58.32;99589.69;1759229;80;20882;-63
2022/06/18 08:08:24;;;;;;;8.58;2.10;;;;;;;23.23;58.36;99591.82;1767538;80;21028;-63
2022/06/18 08:10:52;;;;;;;25.75;4.87;;;;;;;23.41;58.38;99587.28;1753022;80;20966;-63
2022/06/18 08:13:20;;;;;;;4.10;2.02;;;;;;;23.71;58.28;99580.27;1749593;80;20919;-63
2022/06/18 08:15:48;;;;;;;13.88;3.47;;;;;;;23.96;58.16;99575.86;1745451;80;21195;-63
2022/06/18 08:18:15;;;;;;;28.15;7.12;;;;;;;24.10;57.46;99580.56;1757098;80;20926;-63
2022/06/18 08:20:43;;;;;;;5.47;1.67;;;;;;;23.96;56.95;99582.03;1750897;80;20994;-63
2022/06/18 08:23:10;;;;;;;27.00;5.17;;;;;;;23.95;56.94;99583.54;1743456;81;21666;-63
2022/06/18 08:25:39;;;;;;;5.75;1.27;;;;;;;24.09;56.99;99577.07;1729400;81;20998;-64
2022/06/18 08:28:08;;;;;;;24.43;4.12;;;;;;;24.29;56.74;99574.94;1746491;81;21039;-63
2022/06/18 08:30:36;;;;;;;8.70;2.72;;;;;;;24.41;56.60;99578.62;1755318;81;20958;-63
2022/06/18 08:33:03;;;;;;;19.40;3.35;;;;;;;24.57;56.34;99572.00;1746875;80;21386;-63
2022/06/18 08:35:31;;;;;;;3.75;1.50;;;;;;;24.84;56.04;99564.64;1741095;81;20920;-63
2022/06/18 08:37:58;;;;;;;3.30;1.47;;;;;;;25.07;56.30;99557.61;1746719;81;21456;-63
2022/06/18 08:41:01;;;;;;;9.68;1.62;;;;;;;25.42;56.02;99556.37;1734014;81;21029;-62
2022/06/18 08:43:45;;;;;;;4.60;1.30;;;;;;;26.02;55.75;99544.27;1749863;80;20934;-62
2022/06/18 08:46:41;;;;;;;2.70;1.62;;;;;;;26.54;54.38;99548.94;1754464;80;20935;-62
2022/06/18 08:49:50;;;;;;;11.22;1.40;;;;;;;26.74;54.46;99543.08;1719478;81;21436;-61
2022/06/18 08:52:40;;;;;;;4.17;1.40;;;;;;;26.89;54.15;99533.23;1715655;82;20991;-61
2022/06/18 08:55:44;;;;;;;4.30;1.30;;;;;;;27.14;53.93;99535.64;1695462;84;21480;-61
2022/06/18 08:58:28;;;;;;;5.47;1.50;;;;;;;27.20;52.60;99522.90;1715242;82;20950;-59
2022/06/18 09:01:09;;;;;;;3.47;1.17;;;;;;;27.07;52.68;99513.30;1694992;83;20996;-60
2022/06/18 09:04:28;;;;;;;3.15;1.47;;;;;;;27.14;51.91;99508.84;1745940;81;20932;-60
2022/06/18 09:07:24;;;;;;;4.20;1.05;;;;;;;26.84;51.14;99503.48;1736894;81;20979;-60
2022/06/18 09:10:31;;;;;;;17.37;1.67;;;;;;;26.62;51.29;99511.06;1752155;81;21024;-60
2022/06/18 09:13:12;;;;;;;4.97;1.00;;;;;;;26.72;51.27;99503.10;1758157;81;21485;-61
2022/06/18 09:15:44;;;;;;;6.28;1.42;;;;;;;26.83;50.28;99498.30;1746522;81;20928;-60
2022/06/18 09:18:22;;;;;;;7.78;1.40;;;;;;;26.70;49.86;99497.60;1735030;80;20931;-61
2022/06/18 09:20:55;;;;;;;44.90;3.95;;;;;;;26.64;49.66;99487.11;1750978;80;20933;-60
2022/06/18 09:23:33;;;;;;;6.47;1.62;;;;;;;26.63;49.53;99493.97;1757276;80;21098;-61
2022/06/18 09:26:00;;;;;;;5.00;1.45;;;;;;;26.64;49.11;99494.31;1750231;80;21651;-61
2022/06/18 09:28:40;;;;;;;6.53;1.52;;;;;;;26.62;48.80;99488.30;1755351;80;21002;-61
2022/06/18 09:31:27;;;;;;;8.10;1.30;;;;;;;26.74;48.87;99483.64;1757682;80;20958;-61
2022/06/18 09:34:00;;;;;;;12.80;1.80;;;;;;;27.14;48.80;99479.36;1755455;80;20887;-61
2022/06/18 09:36:35;;;;;;;3.75;1.32;;;;;;;27.57;48.49;99466.97;1757521;80;21216;-61
2022/06/18 09:39:34;;;;;;;7.20;1.35;;;;;;;27.99;48.10;99465.38;1754100;80;20893;-61
2022/06/18 09:42:25;;;;;;;3.50;1.35;;;;;;;28.09;47.27;99463.70;1751072;80;21465;-61
2022/06/18 09:45:12;;;;;;;4.87;1.62;;;;;;;28.65;47.55;99457.09;1767380;80;20909;-61
2022/06/18 09:47:48;;;;;;;3.70;1.22;;;;;;;28.93;46.60;99456.22;1761370;80;20917;-61
2022/06/18 09:50:27;;;;;;;;;;;;;;;28.97;46.26;99446.74;1760543;80;21967;-61
2022/06/18 09:53:07;;;;;;;9.48;1.60;;;;;;;28.62;45.23;99447.23;1765198;80;20088;-61
2022/06/18 09:55:42;;;;;;;1.47;1.00;;;;;;;28.14;44.70;99441.15;1754909;80;20886;-61
2022/06/18 09:58:19;;;;;;;2.15;1.45;;;;;;;27.69;44.64;99437.80;1768239;80;20957;-60
2022/06/18 10:00:49;;;;;;;4.42;1.62;;;;;;;27.21;44.44;99437.45;1766502;80;20938;-61
2022/06/18 10:09:03;;;;;;;2.40;1.40;;;;;;;26.65;44.37;99439.73;1757632;80;20950;-62
2022/06/18 10:11:30;;;;;;;4.58;1.10;;;;;;;26.87;43.97;99426.77;1736667;80;21041;-62
2022/06/18 10:14:03;;;;;;;;;;;;;;;27.13;44.19;99421.44;1763436;80;20949;-61
2022/06/18 10:16:53;;;;;;;5.33;1.22;;;;;;;27.57;43.94;99423.23;1741523;80;21099;-62
2022/06/18 10:19:40;;;;;;;8.45;1.20;;;;;;;28.06;43.85;99418.47;1758643;80;20924;-61
2022/06/18 10:22:28;;;;;;;43.08;6.03;;;;;;;28.48;43.52;99422.14;1750167;80;20906;-61
2022/06/18 10:25:15;;;;;;;15.55;3.33;;;;;;;28.86;43.60;99412.38;1753322;80;20934;-62
2022/06/18 10:28:12;;;;;;;3.15;1.32;;;;;;;29.11;43.02;99416.24;1756354;79;20878;-59
2022/06/18 10:31:08;;;;;;;5.05;1.65;;;;;;;29.10;42.71;99400.30;1766366;80;21218;-62
2022/06/18 10:33:46;;;;;;;2.83;1.50;;;;;;;29.13;42.46;99403.44;1769116;80;21034;-61
2022/06/18 10:36:27;;;;;;;15.50;2.00;;;;;;;29.07;41.96;99398.84;1760606;79;20937;-62
2022/06/18 10:39:04;;;;;;;4.65;1.30;;;;;;;28.93;41.88;99395.75;1762186;80;20945;-62
2022/06/18 10:41:56;;;;;;;5.45;1.30;;;;;;;29.00;41.94;99395.28;1762777;80;20913;-62
2022/06/18 10:44:37;;;;;;;4.65;1.60;;;;;;;29.13;41.59;99400.75;1759459;80;21449;-61
2022/06/18 10:47:12;;;;;;;4.97;1.42;;;;;;;29.21;41.55;99393.86;1752625;79;20830;-61
2022/06/18 10:49:39;;;;;;;9.18;2.08;;;;;;;29.40;41.20;99383.35;1753354;80;20937;-62
2022/06/18 10:52:20;;;;;;;27.87;4.60;;;;;;;29.45;41.21;99379.55;1757807;80;21451;-61
2022/06/18 10:54:47;;;;;;;4.97;1.30;;;;;;;29.44;40.92;99383.27;1763388;80;21412;-61
2022/06/18 10:57:26;;;;;;;3.75;1.30;;;;;;;29.41;40.26;99378.30;1755043;79;21038;-61
2022/06/18 10:59:53;;;;;;;3.65;1.30;;;;;;;29.32;40.25;99375.47;1758758;80;20906;-61
2022/06/18 11:02:29;;;;;;;4.53;1.52;;;;;;;29.23;39.97;99370.79;1755802;80;20962;-61
2022/06/18 11:05:00;;;;;;;8.23;1.40;;;;;;;29.18;40.08;99371.41;1754730;80;20945;-62
2022/06/18 11:07:32;;;;;;;3.67;1.72;;;;;;;29.13;39.74;99368.50;1751577;80;20985;-61
2022/06/18 11:10:06;;;;;;;5.20;1.57;;;;;;;29.07;39.47;99366.59;1748270;80;21465;-61
2022/06/18 11:12:38;;;;;;;1.95;1.15;;;;;;;28.94;39.32;99369.21;1755676;80;20916;-62
2022/06/18 11:15:22;;;;;;;3.30;1.37;;;;;;;28.81;39.16;99372.66;1759563;80;20954;-62
2022/06/18 11:17:51;;;;;;;5.87;1.50;;;;;;;28.70;39.02;99373.21;1751588;80;20919;-61
2022/06/18 11:20:28;;;;;;;13.70;2.45;;;;;;;28.61;39.06;99377.92;1736790;80;20932;-61
2022/06/18 11:23:06;;;;;;;5.92;1.77;;;;;;;28.67;38.94;99375.78;1708633;82;22014;-61
2022/06/18 11:25:41;;;;;;;13.00;3.15;;;;;;;28.74;39.15;99378.00;1710830;82;21465;-61
2022/06/18 11:28:19;;;;;;;2.22;1.40;;;;;;;28.87;39.03;99371.02;1718073;82;20982;-63
2022/06/18 11:30:49;;;;;;;3.50;1.80;;;;;;;28.94;38.92;99363.84;1716007;82;21420;-63
2022/06/18 11:33:39;;;;;;;5.12;1.82;;;;;;;28.98;38.80;99370.45;1719048;82;21421;-63
2022/06/18 11:36:19;;;;;;;5.00;1.40;;;;;;;28.91;38.78;99362.89;1716448;82;21040;-63
2022/06/18 11:38:56;;;;;;;6.62;1.17;;;;;;;28.85;38.78;99359.64;1690402;83;20987;-63
2022/06/18 11:41:40;;;;;;;1.95;1.40;;;;;;;28.88;39.00;99354.72;1677392;85;20926;-63
2022/06/18 11:44:24;;;;;;;2.20;1.20;;;;;;;29.23;39.00;99347.41;1727407;82;21555;-63
2022/06/18 11:46:56;;;;;;;15.80;2.20;;;;;;;29.64;38.77;99337.61;1721176;82;21002;-62
2022/06/18 11:49:34;;;;;;;4.35;1.60;;;;;;;29.79;38.65;99336.06;1718134;82;22144;-63
2022/06/18 11:52:24;;;;;;;3.72;1.35;;;;;;;29.99;38.51;99332.84;1725156;81;21489;-63
2022/06/18 11:55:04;;;;;;;3.30;1.32;;;;;;;30.01;38.19;99329.95;1722560;80;20948;-62
2022/06/18 11:57:56;;;;;;;12.40;2.27;;;;;;;29.73;38.18;99329.64;1722424;82;21424;-62
2022/06/18 12:00:28;;;;;;;4.17;1.40;;;;;;;29.69;38.13;99324.87;1731774;82;20923;-62
2022/06/18 12:03:24;;;;;;;3.58;1.10;;;;;;;29.66;37.77;99317.54;1725467;82;21507;-62
2022/06/18 12:05:58;;;;;;;5.12;1.40;;;;;;;29.65;37.74;99318.55;1729976;82;21501;-62
2022/06/18 12:08:26;;;;;;;2.50;1.40;;;;;;;29.78;37.65;99302.13;1729518;81;20978;-62
2022/06/18 12:11:13;;;;;;;3.15;1.37;;;;;;;29.66;37.20;99299.20;1729938;82;20912;-63
2022/06/18 12:13:46;;;;;;;5.10;1.50;;;;;;;29.52;37.31;99302.40;1695540;83;21044;-64
2022/06/18 12:16:36;;;;;;;3.10;1.50;;;;;;;29.52;37.28;99299.70;1665558;85;21104;-62
2022/06/18 12:19:25;;;;;;;3.22;1.60;;;;;;;29.68;37.12;99281.52;1700471;82;20923;-62